Time;durP1;ratioP1;P1;durP2;ratioP2;P2;SDS_P1;SDS_P2;PMS_P1;PMS_P2;Temp;Humidity;BMP_temperature;BMP_pressure;BME280_temperature;BME280_humidity;BME280_pressure;Samples;Min_cycle;Max_cycle;Signal;HPM_P1;HPM_P2
2023/08/03 00:00:58;;;;;;;7.20;6.03;;;;;;;23.69;70.92;65487.47;5072264;28;20193;-51
2023/08/03 00:03:24;;;;;;;6.40;5.82;;;;;;;23.62;70.76;65479.16;5071980;28;20576;-51
2023/08/03 00:05:50;;;;;;;6.72;6.03;;;;;;;23.57;71.54;65479.31;5054306;28;20208;-51
2023/08/03 00:08:15;;;;;;;6.50;5.88;;;;;;;23.55;71.54;65476.53;5072249;28;20501;-50
2023/08/03 00:10:41;;;;;;;8.50;6.15;;;;;;;23.58;71.30;65475.28;5072529;28;20228;-52
2023/08/03 00:13:08;;;;;;;8.10;5.88;;;;;;;23.65;71.92;65483.03;5072466;28;20354;-50
2023/08/03 00:15:34;;;;;;;7.35;6.63;;;;;;;23.83;70.51;65505.00;5071807;28;20645;-51
2023/08/03 00:18:06;;;;;;;6.55;5.90;;;;;;;23.62;70.90;65481.72;5072645;28;20299;-52
2023/08/03 00:20:32;;;;;;;8.57;6.80;;;;;;;23.46;72.05;65461.97;5071930;28;20212;-51
2023/08/03 00:22:58;;;;;;;7.05;6.40;;;;;;;23.43;72.78;65460.69;5071699;28;20216;-50
2023/08/03 00:25:24;;;;;;;7.18;6.47;;;;;;;23.23;74.05;65436.47;5072023;28;20254;-52
2023/08/03 00:27:50;;;;;;;8.18;6.60;;;;;;;23.23;74.48;65436.47;5053977;28;20632;-51
2023/08/03 00:30:15;;;;;;;7.28;6.57;;;;;;;23.20;75.76;65433.16;5070918;28;20197;-53
2023/08/03 00:32:41;;;;;;;7.03;6.32;;;;;;;23.13;75.55;65425.94;5071195;28;20209;-53
2023/08/03 00:35:07;;;;;;;7.78;6.60;;;;;;;22.99;77.18;65410.44;5070806;28;20733;-54
2023/08/03 00:37:33;;;;;;;7.43;6.55;;;;;;;22.92;77.60;65405.25;5072611;28;20592;-50
2023/08/03 00:39:58;;;;;;;7.75;7.05;;;;;;;22.86;78.00;65396.06;5072380;28;20197;-53
2023/08/03 00:42:23;;;;;;;8.50;7.18;;;;;;;22.83;78.60;65392.72;5071716;28;20214;-52
2023/08/03 00:44:49;;;;;;;8.93;7.47;;;;;;;22.75;78.91;65386.44;5071625;28;20204;-55
2023/08/03 00:47:14;;;;;;;9.52;7.78;;;;;;;22.79;79.03;65390.84;5071845;28;20208;-51
2023/08/03 00:49:40;;;;;;;7.68;6.57;;;;;;;22.84;79.74;65395.84;5071820;28;20185;-57
2023/08/03 00:52:06;;;;;;;11.82;7.20;;;;;;;22.89;79.86;65399.38;5071474;28;20258;-53
2023/08/03 00:54:31;;;;;;;8.57;7.47;;;;;;;22.84;80.74;65393.84;5070518;28;20220;-51
2023/08/03 00:56:57;;;;;;;10.30;7.43;;;;;;;22.85;81.67;65394.94;5071192;28;20285;-51
2023/08/03 00:59:23;;;;;;;8.90;7.28;;;;;;;22.72;82.71;65383.13;5072654;28;20192;-54
2023/08/03 01:01:48;;;;;;;8.15;7.35;;;;;;;22.70;83.47;65378.34;5070881;28;20627;-51
2023/08/03 01:04:13;;;;;;;8.80;7.75;;;;;;;22.80;83.41;65388.84;5071345;28;20291;-50
2023/08/03 01:06:40;;;;;;;8.30;7.50;;;;;;;22.73;84.13;65381.63;5070841;28;20208;-51
2023/08/03 01:09:06;;;;;;;9.38;7.78;;;;;;;22.63;84.69;65373.13;5072150;28;20262;-53
2023/08/03 01:11:32;;;;;;;8.05;7.25;;;;;;;22.63;85.08;65372.59;5053699;28;20209;-52
2023/08/03 01:13:58;;;;;;;7.88;6.80;;;;;;;22.68;85.21;65378.69;5071923;28;20281;-54
2023/08/03 01:16:24;;;;;;;8.48;7.57;;;;;;;22.78;84.71;65387.19;5070008;28;20213;-53
2023/08/03 01:18:50;;;;;;;9.15;7.80;;;;;;;22.68;85.35;65378.13;5053840;28;20296;-53
2023/08/03 01:21:18;;;;;;;8.73;7.85;;;;;;;22.67;85.49;65379.59;5071378;28;20244;-53
2023/08/03 01:23:44;;;;;;;8.98;8.07;;;;;;;22.59;86.10;65371.28;5052752;28;20193;-54
2023/08/03 01:26:09;;;;;;;10.82;8.00;;;;;;;22.49;86.92;65358.19;5071455;28;20212;-56
2023/08/03 01:28:35;;;;;;;9.05;8.15;;;;;;;22.30;88.32;65334.03;5070599;28;20232;-51
2023/08/03 01:31:00;;;;;;;8.90;8.00;;;;;;;22.16;89.44;65321.09;5070086;28;20358;-53
2023/08/03 01:33:26;;;;;;;9.13;8.20;;;;;;;22.10;89.78;65311.88;5070084;28;20223;-53
2023/08/03 01:35:52;;;;;;;10.05;8.13;;;;;;;22.07;90.36;65308.56;5071871;28;20688;-50
2023/08/03 01:38:18;;;;;;;10.90;8.63;;;;;;;21.99;90.72;65300.28;5070643;28;20629;-54
2023/08/03 01:40:43;;;;;;;10.60;8.07;;;;;;;22.06;90.01;65310.03;5069959;28;20232;-50
2023/08/03 01:43:09;;;;;;;9.82;8.63;;;;;;;22.09;90.38;65313.91;5069879;28;20230;-51
2023/08/03 01:45:34;;;;;;;10.60;8.20;;;;;;;22.05;90.49;65308.91;5069641;28;20223;-54
2023/08/03 01:48:00;;;;;;;9.65;8.13;;;;;;;22.12;89.49;65316.69;5070770;28;20205;-54
2023/08/03 01:50:26;;;;;;;10.10;8.63;;;;;;;22.13;89.41;65315.19;5052567;28;20215;-55
2023/08/03 01:52:52;;;;;;;8.93;8.02;;;;;;;22.08;89.48;65312.78;5070301;28;20220;-53
2023/08/03 01:55:17;;;;;;;8.85;7.95;;;;;;;21.97;90.17;65298.06;5052490;28;20205;-50
2023/08/03 01:57:45;;;;;;;10.88;8.75;;;;;;;21.91;90.69;65293.44;5073932;28;20695;-50
2023/08/03 02:00:11;;;;;;;10.55;8.18;;;;;;;21.94;90.69;65297.28;5074440;28;20200;-52
2023/08/03 02:02:36;;;;;;;8.70;7.80;;;;;;;21.88;91.12;65292.66;5074203;28;20297;-51
2023/08/03 02:05:02;;;;;;;10.68;8.90;;;;;;;21.80;91.76;65278.66;5075442;28;20201;-52
2023/08/03 02:07:43;;;;;;;9.68;8.55;;;;;;;21.72;92.34;65273.50;5073341;28;20205;-51
2023/08/03 02:10:10;;;;;;;9.70;8.70;;;;;;;21.73;92.65;65274.59;5074550;28;20668;-52
2023/08/03 02:12:35;;;;;;;10.68;8.05;;;;;;;21.68;93.30;65269.06;5073856;28;20252;-58
2023/08/03 02:15:01;;;;;;;11.38;8.55;;;;;;;21.62;93.48;65259.31;5073184;28;20204;-50
2023/08/03 02:17:31;;;;;;;9.50;8.55;;;;;;;21.48;93.68;65246.94;5074393;28;20347;-55
2023/08/03 02:19:56;;;;;;;9.93;9.02;;;;;;;21.63;93.44;65263.53;5056385;28;20682;-53
2023/08/03 02:22:21;;;;;;;11.60;8.90;;;;;;;21.61;93.85;65258.19;5073525;28;20219;-51
2023/08/03 02:24:47;;;;;;;9.48;8.48;;;;;;;21.57;94.39;65253.78;5073806;28;20237;-53
2023/08/03 02:27:12;;;;;;;9.10;8.20;;;;;;;21.56;94.34;65255.78;5054773;28;20689;-52
2023/08/03 02:29:38;;;;;;;12.10;8.40;;;;;;;21.50;94.87;65249.16;5073086;28;20197;-53
2023/08/03 02:32:04;;;;;;;12.30;9.00;;;;;;;21.48;95.42;65244.38;5055335;28;20764;-53
2023/08/03 02:34:29;;;;;;;9.65;8.13;;;;;;;21.43;95.70;65241.41;5073298;28;20233;-52
2023/08/03 02:36:55;;;;;;;9.20;8.02;;;;;;;21.43;96.09;65238.84;5073809;28;20823;-51
2023/08/03 02:39:21;;;;;;;9.80;8.82;;;;;;;21.56;95.16;65255.78;5072905;28;20272;-50
2023/08/03 02:41:46;;;;;;;9.52;8.45;;;;;;;21.42;95.83;65237.75;5074230;28;20300;-54
2023/08/03 02:44:11;;;;;;;10.23;9.07;;;;;;;21.34;96.79;65234.03;5073051;28;20212;-53
2023/08/03 02:46:48;;;;;;;9.98;8.93;;;;;;;21.35;96.54;65234.56;5074340;28;20212;-51
2023/08/03 02:49:13;;;;;;;9.07;8.18;;;;;;;21.43;96.32;65241.41;5073994;28;20608;-51
2023/08/03 02:51:39;;;;;;;10.98;8.82;;;;;;;21.43;96.46;65241.41;5074548;28;20204;-50
2023/08/03 02:54:04;;;;;;;11.18;8.90;;;;;;;21.34;97.07;65230.91;5073135;28;20296;-54
2023/08/03 02:56:30;;;;;;;11.65;9.38;;;;;;;21.31;97.03;65228.13;5074000;28;20209;-54
2023/08/03 02:58:55;;;;;;;10.80;8.38;;;;;;;21.34;96.96;65230.91;5073935;28;20218;-52
2023/08/03 03:01:21;;;;;;;9.88;8.27;;;;;;;21.37;97.75;65231.66;5074325;28;20295;-53
2023/08/03 03:03:47;;;;;;;10.30;8.88;;;;;;;21.30;97.83;65226.47;5074987;28;20197;-51
2023/08/03 03:06:12;;;;;;;10.10;8.75;;;;;;;21.44;97.15;65242.50;5072726;28;20211;-51
2023/08/03 03:08:40;;;;;;;10.82;8.93;;;;;;;21.45;96.37;65243.59;5074851;28;20197;-50
2023/08/03 03:11:05;;;;;;;9.98;8.90;;;;;;;21.48;96.20;65243.81;5074024;28;20205;-51
2023/08/03 03:13:30;;;;;;;12.38;9.07;;;;;;;21.39;96.71;65236.97;5072165;28;20222;-53
2023/08/03 03:15:56;;;;;;;10.15;8.88;;;;;;;21.17;98.38;65212.66;5072218;28;20300;-53
2023/08/03 03:18:21;;;;;;;9.35;8.45;;;;;;;21.05;99.27;65198.84;5072663;28;20640;-53
2023/08/03 03:20:46;;;;;;;11.25;9.80;;;;;;;20.95;100.00;65188.31;5054716;28;20201;-51
2023/08/03 03:23:12;;;;;;;10.00;8.95;;;;;;;20.88;100.00;65183.13;5072386;28;20651;-57
2023/08/03 03:25:39;;;;;;;12.15;9.38;;;;;;;20.94;100.00;65189.75;5072864;28;20184;-52
2023/08/03 03:28:04;;;;;;;11.13;9.52;;;;;;;20.95;100.00;65185.72;5055332;28;20211;-52
2023/08/03 03:30:34;;;;;;;11.38;10.13;;;;;;;20.98;100.00;65191.63;5072468;28;20192;-53
2023/08/03 03:32:59;;;;;;;10.80;9.70;;;;;;;20.98;100.00;65191.63;5072020;28;20224;-50
2023/08/03 03:35:24;;;;;;;11.55;9.60;;;;;;;21.06;100.00;65200.50;5073259;28;20173;-54
2023/08/03 03:37:50;;;;;;;13.18;9.20;;;;;;;21.10;99.88;65204.34;5071323;28;20220;-59
2023/08/03 03:40:15;;;;;;;10.75;9.63;;;;;;;21.18;99.39;65210.63;5072267;28;20633;-51
2023/08/03 03:42:41;;;;;;;11.43;8.63;;;;;;;21.17;99.35;65212.66;5071399;28;20215;-51
2023/08/03 03:45:07;;;;;;;10.05;9.13;;;;;;;21.17;99.59;65212.09;5071288;28;20185;-51
2023/08/03 03:47:32;;;;;;;12.82;9.07;;;;;;;21.20;99.11;65215.41;5071345;28;20204;-53
2023/08/03 03:49:59;;;;;;;12.13;9.88;;;;;;;21.14;99.45;65208.78;5071084;28;20345;-52
2023/08/03 03:52:25;;;;;;;13.02;9.68;;;;;;;21.25;99.29;65220.94;5052965;28;20220;-52
2023/08/03 03:54:51;;;;;;;11.32;9.52;;;;;;;21.17;99.65;65212.66;5071803;28;20193;-50
2023/08/03 03:57:16;;;;;;;15.57;9.75;;;;;;;21.10;100.00;65204.91;5053168;28;20204;-51
2023/08/03 03:59:41;;;;;;;10.35;9.35;;;;;;;21.07;100.00;65203.63;5070786;28;20270;-53
2023/08/03 04:02:07;;;;;;;9.63;8.55;;;;;;;21.09;100.00;65200.69;5071475;28;20200;-52
2023/08/03 04:04:32;;;;;;;11.65;10.38;;;;;;;21.14;100.00;65206.78;5054129;28;20208;-50
2023/08/03 04:06:58;;;;;;;13.18;10.68;;;;;;;21.12;100.00;65209.13;5052989;28;20212;-54
2023/08/03 04:09:24;;;;;;;10.27;9.25;;;;;;;21.21;99.71;65219.09;5071125;28;20295;-58
2023/08/03 04:11:49;;;;;;;11.05;9.50;;;;;;;21.30;98.62;65229.59;5053127;28;20208;-54
2023/08/03 04:14:14;;;;;;;10.55;9.45;;;;;;;21.15;99.75;65207.88;5071555;28;20208;-54
2023/08/03 04:16:40;;;;;;;10.60;9.02;;;;;;;21.14;99.67;65206.78;5070658;28;20707;-52
2023/08/03 04:19:05;;;;;;;11.52;9.63;;;;;;;21.25;98.94;65218.38;5070203;28;20266;-52
2023/08/03 04:21:31;;;;;;;10.63;9.30;;;;;;;21.22;99.22;65217.63;5070404;28;20212;-55
2023/08/03 04:23:56;;;;;;;11.15;9.85;;;;;;;21.19;99.46;65211.75;5052182;28;20232;-52
2023/08/03 04:26:22;;;;;;;10.82;9.75;;;;;;;21.20;99.68;65212.84;5070285;28;20200;-52
2023/08/03 04:28:48;;;;;;;13.40;9.70;;;;;;;21.26;99.13;65220.03;5052481;28;20269;-51
2023/08/03 04:31:14;;;;;;;10.57;9.57;;;;;;;21.28;98.96;65221.69;5070446;28;20208;-52
2023/08/03 04:33:39;;;;;;;11.40;10.30;;;;;;;21.38;98.63;65235.31;5070389;28;20217;-56
2023/08/03 04:36:05;;;;;;;12.40;10.98;;;;;;;21.48;97.97;65248.94;5070582;28;20201;-51
2023/08/03 04:38:30;;;;;;;12.70;10.68;;;;;;;21.43;98.14;65243.44;5070284;28;20234;-51
2023/08/03 04:40:56;;;;;;;11.95;10.43;;;;;;;21.46;98.49;65244.72;5070214;28;20290;-51
2023/08/03 04:43:22;;;;;;;11.77;10.20;;;;;;;21.62;97.73;65262.44;5070220;28;20652;-50
2023/08/03 04:45:47;;;;;;;11.30;10.20;;;;;;;21.75;96.32;65274.22;5070202;28;20201;-50
2023/08/03 04:48:13;;;;;;;11.05;8.65;;;;;;;21.71;95.64;65274.94;5070801;28;20247;-52
2023/08/03 04:50:39;;;;;;;10.70;9.13;;;;;;;21.62;96.31;65261.88;5070059;28;20670;-55
2023/08/03 04:53:05;;;;;;;10.48;9.38;;;;;;;21.65;96.32;65262.63;5071489;28;20591;-50
2023/08/03 04:55:31;;;;;;;11.57;10.38;;;;;;;21.65;99.34;65262.63;5052787;28;20221;-52
2023/08/03 04:57:56;;;;;;;10.30;9.25;;;;;;;21.82;99.53;65280.88;5070706;28;20223;-55
2023/08/03 05:00:21;;;;;;;10.25;9.20;;;;;;;21.92;98.43;65291.97;5070563;28;20262;-55
2023/08/03 05:02:47;;;;;;;11.43;9.52;;;;;;;21.96;96.89;65298.97;5070044;28;20270;-54
2023/08/03 05:05:12;;;;;;;10.90;9.82;;;;;;;21.99;95.85;65302.28;5069822;28;20788;-53
2023/08/03 05:07:39;;;;;;;14.23;9.38;;;;;;;21.99;98.00;65302.28;5070064;28;20212;-57
2023/08/03 05:10:05;;;;;;;13.18;9.93;;;;;;;22.00;95.32;65303.41;5052260;28;20277;-56
2023/08/03 05:12:30;;;;;;;14.57;10.27;;;;;;;21.98;97.22;65301.19;5051949;28;20646;-56
2023/08/03 05:14:56;;;;;;;9.80;8.80;;;;;;;21.99;96.89;65299.72;5052215;28;20350;-56
2023/08/03 05:17:21;;;;;;;10.40;9.40;;;;;;;22.01;96.16;65302.47;5070765;28;20763;-56
2023/08/03 05:19:47;;;;;;;12.35;10.10;;;;;;;22.12;95.68;65316.69;5070246;28;20197;-56
2023/08/03 05:22:13;;;;;;;9.90;8.73;;;;;;;22.16;95.13;65318.53;5070525;28;20231;-53
2023/08/03 05:24:40;;;;;;;10.40;9.32;;;;;;;22.32;92.60;65336.25;5070468;28;20201;-54
2023/08/03 05:27:09;;;;;;;13.55;10.40;;;;;;;22.31;92.82;65335.13;5052103;28;20220;-55
2023/08/03 05:29:35;;;;;;;12.70;10.02;;;;;;;22.29;93.63;65332.91;5052269;28;20205;-54
2023/08/03 05:32:00;;;;;;;14.00;10.27;;;;;;;22.20;95.08;65325.53;5072960;28;20270;-56
2023/08/03 05:34:26;;;;;;;11.70;10.30;;;;;;;22.29;93.95;65333.47;5074356;28;20205;-53
2023/08/03 05:36:52;;;;;;;11.50;9.55;;;;;;;22.31;93.15;65338.25;5073280;28;20205;-54
2023/08/03 05:39:17;;;;;;;12.18;10.10;;;;;;;22.43;94.00;65354.09;5072010;28;20203;-57
2023/08/03 05:41:43;;;;;;;12.07;9.50;;;;;;;22.65;91.72;65372.78;5053116;28;20212;-58
2023/08/03 05:44:11;;;;;;;10.82;9.38;;;;;;;22.51;93.53;65359.84;5073204;28;20642;-56
2023/08/03 05:46:36;;;;;;;11.07;9.82;;;;;;;22.52;93.71;65358.38;5072848;28;20201;-56
2023/08/03 05:49:02;;;;;;;10.75;9.60;;;;;;;22.61;95.60;65368.34;5055151;28;20584;-53
2023/08/03 05:51:28;;;;;;;12.13;9.32;;;;;;;22.73;93.02;65384.22;5071204;28;20566;-54
2023/08/03 05:53:55;;;;;;;10.02;9.13;;;;;;;22.88;90.25;65397.69;5073047;28;20221;-53
2023/08/03 05:56:22;;;;;;;11.98;9.82;;;;;;;23.06;89.02;65420.78;5072624;28;20216;-53
2023/08/03 05:58:49;;;;;;;10.38;9.27;;;;;;;22.95;87.58;65408.56;5055197;28;20205;-56
2023/08/03 06:01:18;;;;;;;10.48;9.45;;;;;;;22.74;93.14;65382.75;5072613;28;20204;-53
2023/08/03 06:03:44;;;;;;;11.18;9.95;;;;;;;22.67;92.66;65377.56;5072721;28;20204;-54
2023/08/03 06:06:11;;;;;;;10.48;9.48;;;;;;;22.69;93.71;65377.22;5072813;28;20212;-54
2023/08/03 06:08:43;;;;;;;10.50;9.40;;;;;;;22.78;94.38;65384.06;5054445;28;20258;-54
2023/08/03 06:11:09;;;;;;;12.07;9.18;;;;;;;22.96;92.41;65407.13;5072484;28;20216;-53
2023/08/03 06:13:35;;;;;;;10.20;9.20;;;;;;;23.05;91.74;65417.09;5072518;28;20216;-53
2023/08/03 06:16:08;;;;;;;11.65;9.77;;;;;;;23.16;88.68;65428.72;5072743;28;20286;-54
2023/08/03 06:18:55;;;;;;;13.25;9.73;;;;;;;23.17;89.50;65432.38;5072755;28;20209;-57
2023/08/03 06:21:24;;;;;;;14.77;10.13;;;;;;;23.48;84.65;65463.63;5080571;22;20223;-53
2023/08/03 06:23:52;;;;;;;12.70;10.25;;;;;;;23.19;87.90;65426.91;5072731;28;20201;-56
2023/08/03 06:26:19;;;;;;;10.02;9.05;;;;;;;23.16;88.54;65429.28;5072117;28;20402;-54
2023/08/03 06:28:45;;;;;;;11.13;9.52;;;;;;;23.27;89.14;65440.91;5072250;28;20196;-53
2023/08/03 06:31:15;;;;;;;10.75;9.75;;;;;;;23.33;88.40;65448.13;5072469;28;20279;-52
2023/08/03 06:33:43;;;;;;;10.63;9.63;;;;;;;23.33;89.07;65450.69;5072503;28;20229;-54
2023/08/03 06:36:12;;;;;;;14.75;9.60;;;;;;;23.38;89.06;65453.09;5072294;28;20208;-53
2023/08/03 06:38:38;;;;;;;11.02;10.02;;;;;;;23.76;85.69;65495.22;5054024;28;20204;-53
2023/08/03 06:41:04;;;;;;;10.52;9.43;;;;;;;23.90;84.95;65508.16;5054093;28;20208;-53
2023/08/03 06:43:30;;;;;;;12.20;10.30;;;;;;;24.07;83.40;65529.06;5072183;28;20638;-54
2023/08/03 06:45:55;;;;;;;11.98;10.23;;;;;;;24.27;80.32;65550.66;5071742;28;20197;-51
2023/08/03 06:48:21;;;;;;;12.35;10.65;;;;;;;24.08;82.16;65530.72;5071967;28;20635;-52
2023/08/03 06:50:46;;;;;;;16.05;10.32;;;;;;;24.09;82.40;65533.84;5072264;28;20193;-55
2023/08/03 06:53:13;;;;;;;14.52;10.38;;;;;;;24.03;83.87;65524.63;5072034;28;20236;-54
2023/08/03 06:55:39;;;;;;;14.25;9.90;;;;;;;24.11;84.60;65533.50;5071740;28;20663;-54
2023/08/03 06:58:05;;;;;;;13.45;10.82;;;;;;;24.16;83.73;65541.59;5071892;28;20231;-54
2023/08/03 07:00:30;;;;;;;13.00;10.68;;;;;;;24.37;82.63;65562.31;5071884;28;20280;-52
2023/08/03 07:02:56;;;;;;;15.43;10.02;;;;;;;24.59;80.96;65586.72;5071899;28;20216;-52
2023/08/03 07:05:21;;;;;;;13.32;11.60;;;;;;;24.68;80.80;65596.16;5071936;28;20227;-51
2023/08/03 07:07:47;;;;;;;13.98;11.07;;;;;;;24.64;80.93;65592.28;5071653;28;20741;-53
2023/08/03 07:10:12;;;;;;;12.38;10.55;;;;;;;24.88;80.43;65618.34;5071496;28;20224;-53
2023/08/03 07:12:39;;;;;;;15.75;11.00;;;;;;;24.94;79.55;65625.56;5071590;28;20223;-54
2023/08/03 07:15:05;;;;;;;11.98;10.32;;;;;;;24.89;78.12;65617.44;5053776;28;20201;-53
2023/08/03 07:17:31;;;;;;;12.35;11.00;;;;;;;24.97;79.89;65628.34;5071766;28;20736;-52
2023/08/03 07:19:57;;;;;;;14.05;12.05;;;;;;;25.12;78.33;65641.84;5071599;28;20216;-52
2023/08/03 07:22:23;;;;;;;13.50;11.70;;;;;;;25.27;78.00;65661.09;5071700;28;20209;-52
2023/08/03 07:24:49;;;;;;;14.38;11.80;;;;;;;25.27;77.85;65659.03;5071853;28;20204;-52
2023/08/03 07:27:15;;;;;;;17.20;11.75;;;;;;;25.54;76.09;65688.47;5071461;28;20739;-55
2023/08/03 07:29:42;;;;;;;18.85;11.05;;;;;;;25.64;75.76;65699.56;5071615;28;20200;-55
2023/08/03 07:32:08;;;;;;;13.70;10.90;;;;;;;25.53;76.00;65687.38;5060346;22;20316;-55
2023/08/03 07:34:34;;;;;;;14.75;11.40;;;;;;;25.45;76.96;65681.63;5071339;28;20224;-54
2023/08/03 07:37:01;;;;;;;16.10;11.60;;;;;;;25.68;76.61;65706.59;5071374;28;20239;-54
2023/08/03 07:39:27;;;;;;;15.55;11.60;;;;;;;25.92;74.43;65730.66;5070027;28;20212;-54
2023/08/03 07:41:52;;;;;;;12.57;10.60;;;;;;;26.12;72.81;65755.47;5070961;28;20527;-60
2023/08/03 07:44:19;;;;;;;13.02;10.68;;;;;;;26.14;72.13;65757.69;5070966;28;20211;-57
2023/08/03 07:46:46;;;;;;;13.68;10.20;;;;;;;26.14;73.82;65757.69;5069887;28;20295;-54
2023/08/03 07:49:12;;;;;;;15.18;10.73;;;;;;;26.05;73.66;65747.69;5071558;28;20235;-54
2023/08/03 07:51:38;;;;;;;24.70;11.63;;;;;;;26.15;73.25;65758.81;5071444;28;20204;-51
2023/08/03 07:54:04;;;;;;;18.60;11.82;;;;;;;26.05;73.84;65744.56;5052202;28;20217;-52
2023/08/03 07:56:30;;;;;;;16.70;12.25;;;;;;;26.12;73.99;65755.47;5071087;28;20402;-53
2023/08/03 07:58:55;;;;;;;17.88;13.15;;;;;;;26.34;73.90;65779.91;5071043;28;20305;-54
2023/08/03 08:01:22;;;;;;;18.38;11.32;;;;;;;26.41;74.19;65785.13;5070697;28;20219;-53
2023/08/03 08:03:48;;;;;;;15.43;11.93;;;;;;;26.68;71.57;65817.16;5070721;28;20197;-53
2023/08/03 08:06:19;;;;;;;17.75;12.23;;;;;;;26.85;70.57;65836.06;5071002;28;20221;-57
2023/08/03 08:08:46;;;;;;;18.40;12.70;;;;;;;26.80;71.28;65827.91;5070700;28;20201;-53
2023/08/03 08:11:14;;;;;;;14.35;11.40;;;;;;;26.83;71.55;65830.69;5070738;28;20219;-53
2023/08/03 08:13:40;;;;;;;14.43;11.98;;;;;;;26.88;71.29;65836.25;5070555;28;20606;-52
2023/08/03 08:16:08;;;;;;;16.00;11.95;;;;;;;26.88;69.03;65836.25;5070452;28;20200;-58
2023/08/03 08:18:35;;;;;;;16.10;12.27;;;;;;;26.93;69.18;65842.34;5070724;28;20261;-52
2023/08/03 08:21:04;;;;;;;14.60;12.82;;;;;;;27.17;70.39;65871.63;5070803;28;20209;-54
2023/08/03 08:23:30;;;;;;;17.35;12.65;;;;;;;27.56;67.24;65911.28;5070833;28;20291;-55
2023/08/03 08:25:56;;;;;;;20.35;13.48;;;;;;;27.71;65.53;65928.56;5070550;28;20303;-56
2023/08/03 08:28:23;;;;;;;13.40;11.30;;;;;;;27.72;66.80;65929.09;5070677;28;20232;-51
2023/08/03 08:30:49;;;;;;;14.20;11.23;;;;;;;27.41;65.82;65897.78;5070542;28;20211;-54
2023/08/03 08:33:15;;;;;;;13.98;11.20;;;;;;;27.52;64.07;65907.41;5070608;28;20213;-52
2023/08/03 08:35:41;;;;;;;14.88;11.63;;;;;;;27.52;66.88;65907.41;5070147;28;20220;-53
2023/08/03 08:38:10;;;;;;;14.43;11.15;;;;;;;27.53;65.51;65907.97;5070372;28;20246;-52
2023/08/03 08:40:38;;;;;;;13.55;12.15;;;;;;;27.56;64.01;65913.88;5070835;28;20193;-53
2023/08/03 08:43:04;;;;;;;15.70;12.05;;;;;;;27.84;65.54;65943.00;5052103;28;20207;-54
2023/08/03 08:45:32;;;;;;;14.95;11.52;;;;;;;28.02;65.09;65965.06;5069943;28;20184;-53
2023/08/03 08:47:58;;;;;;;19.45;14.55;;;;;;;28.03;65.31;65964.16;5070155;28;20219;-55
2023/08/03 08:50:24;;;;;;;12.70;11.40;;;;;;;28.24;64.53;65987.50;5070337;28;20189;-54
2023/08/03 08:52:51;;;;;;;19.98;10.93;;;;;;;28.38;64.28;66002.56;5070549;28;20428;-55
2023/08/03 08:55:34;;;;;;;15.25;11.18;;;;;;;28.38;63.31;66002.00;5070344;28;20227;-56
2023/08/03 08:58:00;;;;;;;16.88;10.82;;;;;;;28.64;62.36;66031.50;5070189;28;20220;-55
2023/08/03 09:00:26;;;;;;;13.52;11.35;;;;;;;28.96;60.34;66066.56;5069851;28;20693;-54
2023/08/03 09:03:01;;;;;;;15.27;10.70;;;;;;;28.69;61.14;66037.06;5070092;28;20205;-52
2023/08/03 09:05:28;;;;;;;12.68;10.15;;;;;;;28.72;61.74;66043.00;5071859;28;20219;-52
2023/08/03 09:08:05;;;;;;;12.40;11.10;;;;;;;29.06;58.39;66080.28;5074037;28;20593;-53
2023/08/03 09:10:31;;;;;;;13.75;12.10;;;;;;;28.94;59.01;66064.34;5055328;28;20212;-55
2023/08/03 09:12:58;;;;;;;11.93;10.80;;;;;;;28.99;58.78;66067.28;5055625;28;20270;-54
2023/08/03 09:15:38;;;;;;;12.60;11.40;;;;;;;29.21;58.95;66093.88;5073811;28;20287;-52
2023/08/03 09:18:05;;;;;;;12.57;11.27;;;;;;;29.37;60.18;66114.81;5055797;28;20240;-52
2023/08/03 09:20:31;;;;;;;13.60;10.68;;;;;;;29.43;57.79;66115.78;5074233;28;20283;-52
2023/08/03 09:22:58;;;;;;;14.98;11.55;;;;;;;29.48;56.82;66121.31;5073988;28;20208;-52
2023/08/03 09:25:23;;;;;;;14.18;11.55;;;;;;;29.54;56.95;66133.78;5055499;28;20208;-54
2023/08/03 09:27:51;;;;;;;16.75;11.77;;;;;;;29.54;58.55;66133.22;5074016;28;20201;-52
2023/08/03 09:30:18;;;;;;;12.85;11.63;;;;;;;29.76;58.57;66155.13;5055450;28;20220;-53
2023/08/03 09:32:45;;;;;;;12.23;11.02;;;;;;;30.30;58.24;66215.34;5073209;28;20263;-52
2023/08/03 09:35:20;;;;;;;12.50;10.82;;;;;;;30.68;54.69;66259.75;5073286;28;20181;-55
2023/08/03 09:37:46;;;;;;;14.27;11.02;;;;;;;30.66;55.45;66258.06;5073274;28;20585;-54
2023/08/03 09:40:12;;;;;;;12.02;10.80;;;;;;;30.43;54.81;66227.22;5073330;28;20259;-53
2023/08/03 09:42:40;;;;;;;12.27;11.18;;;;;;;30.19;55.90;66202.50;5055402;28;20239;-53
2023/08/03 09:45:07;;;;;;;15.02;11.48;;;;;;;30.19;55.71;66202.50;5073304;28;20208;-53
2023/08/03 09:47:38;;;;;;;12.80;11.27;;;;;;;30.32;56.03;66217.00;5073218;28;20213;-55
2023/08/03 09:50:04;;;;;;;14.27;11.00;;;;;;;30.37;54.41;66222.59;5054859;28;20203;-54
2023/08/03 09:52:31;;;;;;;14.48;11.18;;;;;;;30.52;55.47;66239.84;5072849;28;20220;-55
2023/08/03 09:55:18;;;;;;;13.73;11.10;;;;;;;31.02;55.14;66295.06;5055274;28;20601;-54
2023/08/03 09:57:55;;;;;;;14.73;11.23;;;;;;;31.42;53.53;66339.16;5072868;28;20255;-53
2023/08/03 10:00:21;;;;;;;12.85;11.55;;;;;;;31.80;51.38;66380.97;5073055;28;20776;-54
2023/08/03 10:02:59;;;;;;;12.05;10.90;;;;;;;31.88;50.65;66390.47;5054824;28;20232;-53
2023/08/03 10:05:28;;;;;;;11.40;10.30;;;;;;;31.87;49.78;66388.81;5073365;28;20200;-53
2023/08/03 10:08:06;;;;;;;14.25;11.55;;;;;;;31.52;50.14;66347.69;5072797;28;20208;-53
2023/08/03 10:10:38;;;;;;;11.50;10.40;;;;;;;31.76;50.42;66373.91;5072557;28;20205;-53
2023/08/03 10:13:07;;;;;;;15.07;11.13;;;;;;;32.10;50.43;66415.06;5021482;22;20227;-52
2023/08/03 10:15:34;;;;;;;13.43;12.02;;;;;;;32.32;48.69;66439.06;5013238;28;20217;-52
2023/08/03 10:18:00;;;;;;;12.23;11.02;;;;;;;32.28;48.68;66432.53;5011885;28;20206;-52
2023/08/03 10:20:26;;;;;;;12.65;10.35;;;;;;;32.79;49.05;66488.38;5011682;28;20206;-52
2023/08/03 10:23:12;;;;;;;14.45;10.98;;;;;;;33.16;48.55;66529.72;5013108;28;20280;-54
2023/08/03 10:26:00;;;;;;;12.18;10.95;;;;;;;32.91;48.28;66501.78;5012835;28;20706;-50
2023/08/03 10:28:40;;;;;;;11.82;10.60;;;;;;;33.03;46.60;66515.75;5013217;28;20207;-52
2023/08/03 10:31:14;;;;;;;13.18;11.43;;;;;;;33.31;46.63;66548.56;5013467;28;20210;-51
2023/08/03 10:33:52;;;;;;;11.45;10.18;;;;;;;33.39;45.49;66554.88;5013487;28;20225;-54
2023/08/03 10:36:38;;;;;;;13.63;10.73;;;;;;;33.65;45.96;66584.50;5011730;28;20217;-55
2023/08/03 10:39:16;;;;;;;13.75;10.25;;;;;;;33.72;44.28;66594.38;4992983;28;20289;-52
2023/08/03 10:41:49;;;;;;;13.18;10.65;;;;;;;33.95;43.42;66620.09;5012018;28;20218;-52
2023/08/03 10:44:15;;;;;;;11.95;10.65;;;;;;;33.68;44.44;66587.28;5012458;28;20288;-52
2023/08/03 10:46:48;;;;;;;10.77;9.88;;;;;;;34.01;43.99;66623.63;5012826;28;20222;-55
2023/08/03 10:49:20;;;;;;;11.45;10.38;;;;;;;34.43;43.26;66673.22;4995199;28;20226;-52
2023/08/03 10:51:52;;;;;;;12.05;9.80;;;;;;;34.61;42.12;66693.94;5012836;28;20222;-51
2023/08/03 10:54:31;;;;;;;10.27;9.27;;;;;;;34.26;42.57;66651.59;5012404;28;20230;-54
2023/08/03 10:57:09;;;;;;;11.23;9.63;;;;;;;34.22;42.16;66647.66;5013052;28;20214;-53
2023/08/03 10:59:49;;;;;;;9.90;8.88;;;;;;;34.15;41.75;66639.84;5013435;28;20195;-51
2023/08/03 11:02:14;;;;;;;10.38;9.38;;;;;;;34.49;40.97;66680.50;4994365;28;20203;-52
2023/08/03 11:04:41;;;;;;;11.98;10.02;;;;;;;34.09;41.06;66635.19;5012277;28;20208;-53
2023/08/03 11:07:09;;;;;;;11.00;9.80;;;;;;;34.61;40.33;66691.31;5012591;28;20307;-54
2023/08/03 11:09:35;;;;;;;10.35;8.98;;;;;;;34.97;40.01;66733.66;5012813;28;20214;-52
2023/08/03 11:12:01;;;;;;;15.18;9.10;;;;;;;35.09;38.35;66744.47;5035484;23;20704;-52
2023/08/03 11:14:28;;;;;;;9.50;8.70;;;;;;;35.30;38.32;66767.97;5031814;28;20260;-52
2023/08/03 11:16:53;;;;;;;9.60;8.52;;;;;;;35.72;37.82;66816.47;5032873;28;20206;-52
2023/08/03 11:19:19;;;;;;;9.25;8.45;;;;;;;35.59;37.85;66802.50;5031736;28;20193;-55
2023/08/03 11:21:45;;;;;;;9.90;9.00;;;;;;;36.00;37.51;66845.78;5032813;28;20218;-54
2023/08/03 11:24:10;;;;;;;11.95;9.02;;;;;;;36.02;37.32;66847.47;5032273;28;20194;-55